sensor_id;sensor_type;location;lat;lon;timestamp;P1;durP1;ratioP1;P2;durP2;ratioP2
3034;SDS011;1527;48.836;9.172;2022-08-25T00:00:18;4.47;;;3.53;;
3034;SDS011;1527;48.836;9.172;2022-08-25T00:02:48;4.73;;;4.33;;
3034;SDS011;1527;48.836;9.172;2022-08-25T00:05:25;4.70;;;4.10;;
3034;SDS011;1527;48.836;9.172;2022-08-25T00:07:59;5.13;;;4.63;;
3034;SDS011;1527;48.836;9.172;2022-08-25T00:10:33;4.33;;;3.93;;
3034;SDS011;1527;48.836;9.172;2022-08-25T00:13:04;5.63;;;4.50;;
3034;SDS011;1527;48.836;9.172;2022-08-25T00:15:34;4.53;;;4.13;;
3034;SDS011;1527;48.836;9.172;2022-08-25T00:18:04;5.17;;;4.67;;
3034;SDS011;1527;48.836;9.172;2022-08-25T00:20:47;5.40;;;4.27;;
3034;SDS011;1527;48.836;9.172;2022-08-25T00:23:16;4.33;;;3.93;;
3034;SDS011;1527;48.836;9.172;2022-08-25T00:25:46;5.50;;;4.50;;
3034;SDS011;1527;48.836;9.172;2022-08-25T00:28:17;4.68;;;4.15;;
3034;SDS011;1527;48.836;9.172;2022-08-25T00:30:46;4.13;;;3.72;;
3034;SDS011;1527;48.836;9.172;2022-08-25T00:33:16;6.60;;;4.57;;
3034;SDS011;1527;48.836;9.172;2022-08-25T00:35:45;5.20;;;4.70;;
3034;SDS011;1527;48.836;9.172;2022-08-25T00:38:16;4.47;;;4.07;;
3034;SDS011;1527;48.836;9.172;2022-08-25T00:40:45;5.20;;;4.57;;
3034;SDS011;1527;48.836;9.172;2022-08-25T00:43:33;5.00;;;4.60;;
3034;SDS011;1527;48.836;9.172;2022-08-25T00:46:04;6.70;;;4.32;;
3034;SDS011;1527;48.836;9.172;2022-08-25T00:48:34;7.60;;;5.00;;
3034;SDS011;1527;48.836;9.172;2022-08-25T00:51:05;4.60;;;4.20;;
3034;SDS011;1527;48.836;9.172;2022-08-25T00:53:37;4.47;;;4.07;;
3034;SDS011;1527;48.836;9.172;2022-08-25T00:56:07;4.97;;;4.40;;
3034;SDS011;1527;48.836;9.172;2022-08-25T00:58:37;6.40;;;4.60;;
3034;SDS011;1527;48.836;9.172;2022-08-25T01:01:09;5.20;;;4.27;;
3034;SDS011;1527;48.836;9.172;2022-08-25T01:03:38;5.35;;;4.70;;
3034;SDS011;1527;48.836;9.172;2022-08-25T01:06:08;6.22;;;4.85;;
3034;SDS011;1527;48.836;9.172;2022-08-25T01:08:44;4.68;;;4.30;;
3034;SDS011;1527;48.836;9.172;2022-08-25T01:11:14;4.10;;;3.70;;
3034;SDS011;1527;48.836;9.172;2022-08-25T01:13:43;5.80;;;4.10;;
3034;SDS011;1527;48.836;9.172;2022-08-25T01:16:16;5.43;;;4.93;;
3034;SDS011;1527;48.836;9.172;2022-08-25T01:18:47;4.78;;;4.38;;
3034;SDS011;1527;48.836;9.172;2022-08-25T01:21:21;5.32;;;4.45;;
3034;SDS011;1527;48.836;9.172;2022-08-25T01:23:53;4.40;;;4.00;;
3034;SDS011;1527;48.836;9.172;2022-08-25T01:29:21;5.80;;;4.63;;
3034;SDS011;1527;48.836;9.172;2022-08-25T01:31:53;4.70;;;4.30;;
3034;SDS011;1527;48.836;9.172;2022-08-25T01:34:25;4.60;;;4.00;;
3034;SDS011;1527;48.836;9.172;2022-08-25T01:36:59;4.83;;;4.10;;
3034;SDS011;1527;48.836;9.172;2022-08-25T01:39:29;4.67;;;4.17;;
3034;SDS011;1527;48.836;9.172;2022-08-25T01:42:17;4.38;;;3.97;;
3034;SDS011;1527;48.836;9.172;2022-08-25T01:44:56;4.15;;;3.83;;
3034;SDS011;1527;48.836;9.172;2022-08-25T01:47:25;5.37;;;4.63;;
3034;SDS011;1527;48.836;9.172;2022-08-25T01:49:54;5.10;;;4.70;;
3034;SDS011;1527;48.836;9.172;2022-08-25T01:52:27;5.05;;;4.60;;
3034;SDS011;1527;48.836;9.172;2022-08-25T01:55:00;4.45;;;4.05;;
3034;SDS011;1527;48.836;9.172;2022-08-25T01:57:30;5.63;;;4.65;;
3034;SDS011;1527;48.836;9.172;2022-08-25T01:59:59;5.20;;;4.70;;
3034;SDS011;1527;48.836;9.172;2022-08-25T02:02:37;5.40;;;4.90;;
3034;SDS011;1527;48.836;9.172;2022-08-25T02:05:09;5.47;;;4.97;;
3034;SDS011;1527;48.836;9.172;2022-08-25T02:07:40;5.05;;;4.55;;
3034;SDS011;1527;48.836;9.172;2022-08-25T02:10:10;4.38;;;4.07;;
3034;SDS011;1527;48.836;9.172;2022-08-25T02:12:40;5.65;;;4.38;;
3034;SDS011;1527;48.836;9.172;2022-08-25T02:15:10;5.97;;;4.70;;
3034;SDS011;1527;48.836;9.172;2022-08-25T02:17:40;5.32;;;4.82;;
3034;SDS011;1527;48.836;9.172;2022-08-25T02:20:09;4.95;;;4.55;;
3034;SDS011;1527;48.836;9.172;2022-08-25T02:22:39;7.60;;;4.57;;
3034;SDS011;1527;48.836;9.172;2022-08-25T02:25:19;4.75;;;4.32;;
3034;SDS011;1527;48.836;9.172;2022-08-25T02:27:48;4.97;;;4.55;;
3034;SDS011;1527;48.836;9.172;2022-08-25T02:30:17;5.68;;;5.05;;
3034;SDS011;1527;48.836;9.172;2022-08-25T02:32:47;4.97;;;4.57;;
3034;SDS011;1527;48.836;9.172;2022-08-25T02:35:16;5.57;;;4.35;;
3034;SDS011;1527;48.836;9.172;2022-08-25T02:37:47;5.70;;;4.78;;
3034;SDS011;1527;48.836;9.172;2022-08-25T02:40:20;4.88;;;4.40;;
3034;SDS011;1527;48.836;9.172;2022-08-25T02:42:50;8.65;;;4.70;;
3034;SDS011;1527;48.836;9.172;2022-08-25T02:45:19;5.22;;;4.72;;
3034;SDS011;1527;48.836;9.172;2022-08-25T02:47:48;5.13;;;4.65;;
3034;SDS011;1527;48.836;9.172;2022-08-25T02:50:18;8.10;;;7.30;;
3034;SDS011;1527;48.836;9.172;2022-08-25T02:52:49;7.95;;;6.90;;
3034;SDS011;1527;48.836;9.172;2022-08-25T02:55:18;6.65;;;5.70;;
3034;SDS011;1527;48.836;9.172;2022-08-25T02:57:48;8.25;;;4.82;;
3034;SDS011;1527;48.836;9.172;2022-08-25T03:00:17;7.70;;;6.93;;
3034;SDS011;1527;48.836;9.172;2022-08-25T03:02:49;6.47;;;5.75;;
3034;SDS011;1527;48.836;9.172;2022-08-25T03:05:18;6.57;;;5.15;;
3034;SDS011;1527;48.836;9.172;2022-08-25T03:07:48;7.80;;;5.60;;
3034;SDS011;1527;48.836;9.172;2022-08-25T03:10:20;7.82;;;7.07;;
3034;SDS011;1527;48.836;9.172;2022-08-25T03:12:49;7.10;;;6.40;;
3034;SDS011;1527;48.836;9.172;2022-08-25T03:15:18;7.20;;;6.50;;
3034;SDS011;1527;48.836;9.172;2022-08-25T03:17:47;5.75;;;5.07;;
3034;SDS011;1527;48.836;9.172;2022-08-25T03:20:17;6.03;;;5.13;;
3034;SDS011;1527;48.836;9.172;2022-08-25T03:22:48;6.15;;;5.55;;
3034;SDS011;1527;48.836;9.172;2022-08-25T03:25:18;6.55;;;5.85;;
3034;SDS011;1527;48.836;9.172;2022-08-25T03:28:05;8.38;;;5.55;;
3034;SDS011;1527;48.836;9.172;2022-08-25T03:30:35;6.00;;;5.40;;
3034;SDS011;1527;48.836;9.172;2022-08-25T03:33:04;6.78;;;6.07;;
3034;SDS011;1527;48.836;9.172;2022-08-25T03:35:33;6.63;;;5.88;;
3034;SDS011;1527;48.836;9.172;2022-08-25T03:38:04;8.32;;;5.63;;
3034;SDS011;1527;48.836;9.172;2022-08-25T03:40:33;8.13;;;6.10;;
3034;SDS011;1527;48.836;9.172;2022-08-25T03:43:03;7.05;;;5.72;;
3034;SDS011;1527;48.836;9.172;2022-08-25T03:45:32;5.57;;;5.05;;
3034;SDS011;1527;48.836;9.172;2022-08-25T03:48:01;8.30;;;7.47;;
3034;SDS011;1527;48.836;9.172;2022-08-25T03:50:30;10.55;;;6.90;;
3034;SDS011;1527;48.836;9.172;2022-08-25T03:53:00;10.00;;;7.82;;
3034;SDS011;1527;48.836;9.172;2022-08-25T03:55:30;7.88;;;6.03;;
3034;SDS011;1527;48.836;9.172;2022-08-25T03:58:00;9.30;;;7.50;;
3034;SDS011;1527;48.836;9.172;2022-08-25T04:00:29;6.60;;;5.97;;
3034;SDS011;1527;48.836;9.172;2022-08-25T04:02:58;8.80;;;6.55;;
3034;SDS011;1527;48.836;9.172;2022-08-25T04:05:27;7.10;;;6.40;;
3034;SDS011;1527;48.836;9.172;2022-08-25T04:07:59;7.40;;;6.70;;
3034;SDS011;1527;48.836;9.172;2022-08-25T04:10:28;7.55;;;6.78;;
3034;SDS011;1527;48.836;9.172;2022-08-25T04:13:00;6.05;;;5.53;;
3034;SDS011;1527;48.836;9.172;2022-08-25T04:15:29;7.68;;;6.60;;
3034;SDS011;1527;48.836;9.172;2022-08-25T04:17:58;7.40;;;6.70;;
3034;SDS011;1527;48.836;9.172;2022-08-25T04:20:28;7.55;;;6.15;;
3034;SDS011;1527;48.836;9.172;2022-08-25T04:22:57;6.68;;;6.05;;
3034;SDS011;1527;48.836;9.172;2022-08-25T04:25:27;6.10;;;5.60;;
3034;SDS011;1527;48.836;9.172;2022-08-25T04:27:58;16.73;;;6.55;;
3034;SDS011;1527;48.836;9.172;2022-08-25T04:30:28;7.55;;;5.72;;
3034;SDS011;1527;48.836;9.172;2022-08-25T04:33:00;6.35;;;5.75;;
3034;SDS011;1527;48.836;9.172;2022-08-25T04:35:29;7.28;;;6.30;;
3034;SDS011;1527;48.836;9.172;2022-08-25T04:37:58;6.10;;;5.50;;
3034;SDS011;1527;48.836;9.172;2022-08-25T04:40:28;7.50;;;6.10;;
3034;SDS011;1527;48.836;9.172;2022-08-25T04:43:00;7.43;;;6.72;;
3034;SDS011;1527;48.836;9.172;2022-08-25T04:45:30;6.90;;;5.85;;
3034;SDS011;1527;48.836;9.172;2022-08-25T04:47:59;6.68;;;5.68;;
3034;SDS011;1527;48.836;9.172;2022-08-25T04:50:28;9.77;;;6.82;;
3034;SDS011;1527;48.836;9.172;2022-08-25T04:52:59;6.88;;;6.15;;
3034;SDS011;1527;48.836;9.172;2022-08-25T04:55:28;6.47;;;5.85;;
3034;SDS011;1527;48.836;9.172;2022-08-25T04:57:59;8.05;;;6.10;;
3034;SDS011;1527;48.836;9.172;2022-08-25T05:00:28;7.60;;;6.38;;
3034;SDS011;1527;48.836;9.172;2022-08-25T05:02:57;10.45;;;7.40;;
3034;SDS011;1527;48.836;9.172;2022-08-25T05:05:27;6.90;;;5.80;;
3034;SDS011;1527;48.836;9.172;2022-08-25T05:07:59;10.35;;;6.55;;
3034;SDS011;1527;48.836;9.172;2022-08-25T05:10:29;7.22;;;5.93;;
3034;SDS011;1527;48.836;9.172;2022-08-25T05:13:00;7.43;;;5.95;;
3034;SDS011;1527;48.836;9.172;2022-08-25T05:15:29;6.78;;;6.00;;
3034;SDS011;1527;48.836;9.172;2022-08-25T05:18:17;8.13;;;6.78;;
3034;SDS011;1527;48.836;9.172;2022-08-25T05:20:48;13.82;;;6.07;;
3034;SDS011;1527;48.836;9.172;2022-08-25T05:23:20;10.52;;;6.35;;
3034;SDS011;1527;48.836;9.172;2022-08-25T05:25:50;6.57;;;5.80;;
3034;SDS011;1527;48.836;9.172;2022-08-25T05:28:21;6.80;;;5.88;;
3034;SDS011;1527;48.836;9.172;2022-08-25T05:30:50;9.38;;;6.10;;
3034;SDS011;1527;48.836;9.172;2022-08-25T05:33:25;10.73;;;7.10;;
3034;SDS011;1527;48.836;9.172;2022-08-25T05:35:58;7.20;;;6.43;;
3034;SDS011;1527;48.836;9.172;2022-08-25T05:38:28;7.25;;;6.55;;
3034;SDS011;1527;48.836;9.172;2022-08-25T05:40:58;7.10;;;6.40;;
3034;SDS011;1527;48.836;9.172;2022-08-25T05:43:32;7.57;;;6.00;;
3034;SDS011;1527;48.836;9.172;2022-08-25T05:46:01;8.20;;;6.03;;
3034;SDS011;1527;48.836;9.172;2022-08-25T05:48:31;10.53;;;6.70;;
3034;SDS011;1527;48.836;9.172;2022-08-25T05:51:01;7.00;;;6.30;;
3034;SDS011;1527;48.836;9.172;2022-08-25T05:53:33;7.67;;;6.30;;
3034;SDS011;1527;48.836;9.172;2022-08-25T05:56:02;9.87;;;6.60;;
3034;SDS011;1527;48.836;9.172;2022-08-25T05:58:33;6.47;;;5.77;;
3034;SDS011;1527;48.836;9.172;2022-08-25T06:01:02;9.13;;;6.63;;
3034;SDS011;1527;48.836;9.172;2022-08-25T06:03:46;7.90;;;7.10;;
3034;SDS011;1527;48.836;9.172;2022-08-25T06:06:17;7.60;;;6.30;;
3034;SDS011;1527;48.836;9.172;2022-08-25T06:08:47;7.63;;;6.93;;
3034;SDS011;1527;48.836;9.172;2022-08-25T06:11:16;7.30;;;6.60;;
3034;SDS011;1527;48.836;9.172;2022-08-25T06:13:46;7.90;;;6.63;;
3034;SDS011;1527;48.836;9.172;2022-08-25T06:16:16;8.60;;;7.20;;
3034;SDS011;1527;48.836;9.172;2022-08-25T06:18:45;9.27;;;6.70;;
3034;SDS011;1527;48.836;9.172;2022-08-25T06:21:14;7.90;;;7.10;;
3034;SDS011;1527;48.836;9.172;2022-08-25T06:23:44;10.30;;;7.50;;
3034;SDS011;1527;48.836;9.172;2022-08-25T06:26:15;7.53;;;6.80;;
3034;SDS011;1527;48.836;9.172;2022-08-25T06:28:48;8.40;;;7.60;;
3034;SDS011;1527;48.836;9.172;2022-08-25T06:31:19;8.13;;;7.43;;
3034;SDS011;1527;48.836;9.172;2022-08-25T06:33:49;7.67;;;6.87;;
3034;SDS011;1527;48.836;9.172;2022-08-25T06:36:19;8.77;;;7.90;;
3034;SDS011;1527;48.836;9.172;2022-08-25T06:38:49;7.57;;;6.83;;
3034;SDS011;1527;48.836;9.172;2022-08-25T06:41:19;8.80;;;6.93;;
3034;SDS011;1527;48.836;9.172;2022-08-25T06:43:50;10.70;;;8.33;;
3034;SDS011;1527;48.836;9.172;2022-08-25T06:46:31;10.70;;;6.27;;
3034;SDS011;1527;48.836;9.172;2022-08-25T06:49:03;8.20;;;7.40;;
3034;SDS011;1527;48.836;9.172;2022-08-25T06:51:34;7.40;;;6.80;;
3034;SDS011;1527;48.836;9.172;2022-08-25T06:54:04;10.53;;;6.70;;
3034;SDS011;1527;48.836;9.172;2022-08-25T06:56:36;10.87;;;7.67;;
3034;SDS011;1527;48.836;9.172;2022-08-25T06:59:08;10.63;;;7.50;;
3034;SDS011;1527;48.836;9.172;2022-08-25T07:01:38;8.30;;;7.50;;
3034;SDS011;1527;48.836;9.172;2022-08-25T07:04:09;8.20;;;7.17;;
3034;SDS011;1527;48.836;9.172;2022-08-25T07:06:39;8.80;;;7.57;;
3034;SDS011;1527;48.836;9.172;2022-08-25T07:09:09;8.53;;;7.53;;
3034;SDS011;1527;48.836;9.172;2022-08-25T07:11:40;7.50;;;6.80;;
3034;SDS011;1527;48.836;9.172;2022-08-25T07:14:13;7.90;;;7.10;;
3034;SDS011;1527;48.836;9.172;2022-08-25T07:16:44;7.77;;;7.07;;
3034;SDS011;1527;48.836;9.172;2022-08-25T07:19:17;9.67;;;7.43;;
3034;SDS011;1527;48.836;9.172;2022-08-25T07:21:48;8.23;;;7.43;;
3034;SDS011;1527;48.836;9.172;2022-08-25T07:24:20;7.90;;;6.83;;
3034;SDS011;1527;48.836;9.172;2022-08-25T07:26:50;9.37;;;7.30;;
3034;SDS011;1527;48.836;9.172;2022-08-25T07:29:22;8.80;;;7.90;;
3034;SDS011;1527;48.836;9.172;2022-08-25T07:32:01;10.67;;;7.20;;
3034;SDS011;1527;48.836;9.172;2022-08-25T07:34:31;6.93;;;6.33;;
3034;SDS011;1527;48.836;9.172;2022-08-25T07:37:19;8.77;;;7.10;;
3034;SDS011;1527;48.836;9.172;2022-08-25T07:40:10;8.00;;;7.17;;
3034;SDS011;1527;48.836;9.172;2022-08-25T07:42:42;11.87;;;8.50;;
3034;SDS011;1527;48.836;9.172;2022-08-25T07:45:13;7.67;;;6.93;;
3034;SDS011;1527;48.836;9.172;2022-08-25T07:47:47;7.70;;;7.00;;
3034;SDS011;1527;48.836;9.172;2022-08-25T07:50:21;8.30;;;7.50;;
3034;SDS011;1527;48.836;9.172;2022-08-25T07:52:51;9.47;;;7.77;;
3034;SDS011;1527;48.836;9.172;2022-08-25T07:55:32;9.97;;;7.20;;
3034;SDS011;1527;48.836;9.172;2022-08-25T07:58:02;8.50;;;7.07;;
3034;SDS011;1527;48.836;9.172;2022-08-25T08:00:36;8.10;;;7.03;;
3034;SDS011;1527;48.836;9.172;2022-08-25T08:03:08;7.87;;;7.13;;
3034;SDS011;1527;48.836;9.172;2022-08-25T08:05:58;8.30;;;7.50;;
3034;SDS011;1527;48.836;9.172;2022-08-25T08:08:27;8.17;;;7.47;;
3034;SDS011;1527;48.836;9.172;2022-08-25T08:10:58;7.33;;;6.70;;
3034;SDS011;1527;48.836;9.172;2022-08-25T08:13:31;12.10;;;7.03;;
3034;SDS011;1527;48.836;9.172;2022-08-25T08:16:09;7.80;;;7.13;;
3034;SDS011;1527;48.836;9.172;2022-08-25T08:18:40;7.37;;;6.67;;
3034;SDS011;1527;48.836;9.172;2022-08-25T08:21:10;6.83;;;6.17;;
3034;SDS011;1527;48.836;9.172;2022-08-25T08:23:46;9.30;;;7.50;;
3034;SDS011;1527;48.836;9.172;2022-08-25T08:26:19;9.17;;;7.07;;
3034;SDS011;1527;48.836;9.172;2022-08-25T08:29:09;7.47;;;6.57;;
3034;SDS011;1527;48.836;9.172;2022-08-25T08:31:40;8.70;;;7.23;;
3034;SDS011;1527;48.836;9.172;2022-08-25T08:34:15;8.07;;;7.27;;
3034;SDS011;1527;48.836;9.172;2022-08-25T08:36:44;7.83;;;7.13;;
3034;SDS011;1527;48.836;9.172;2022-08-25T08:39:13;7.97;;;6.67;;
3034;SDS011;1527;48.836;9.172;2022-08-25T08:44:57;7.63;;;6.93;;
3034;SDS011;1527;48.836;9.172;2022-08-25T08:47:41;6.47;;;5.87;;
3034;SDS011;1527;48.836;9.172;2022-08-25T08:50:24;8.53;;;6.57;;
3034;SDS011;1527;48.836;9.172;2022-08-25T08:53:02;8.73;;;7.10;;
3034;SDS011;1527;48.836;9.172;2022-08-25T08:55:38;7.47;;;6.73;;
3034;SDS011;1527;48.836;9.172;2022-08-25T08:58:19;7.90;;;7.13;;
3034;SDS011;1527;48.836;9.172;2022-08-25T09:00:53;9.53;;;7.20;;
3034;SDS011;1527;48.836;9.172;2022-08-25T09:03:28;7.50;;;6.70;;
3034;SDS011;1527;48.836;9.172;2022-08-25T09:06:06;8.47;;;6.60;;
3034;SDS011;1527;48.836;9.172;2022-08-25T09:08:40;8.60;;;7.53;;
3034;SDS011;1527;48.836;9.172;2022-08-25T09:11:12;8.17;;;6.70;;
3034;SDS011;1527;48.836;9.172;2022-08-25T09:13:58;10.03;;;6.93;;
3034;SDS011;1527;48.836;9.172;2022-08-25T09:16:41;10.50;;;6.73;;
3034;SDS011;1527;48.836;9.172;2022-08-25T09:19:30;8.13;;;7.33;;
3034;SDS011;1527;48.836;9.172;2022-08-25T09:22:16;7.67;;;6.50;;
3034;SDS011;1527;48.836;9.172;2022-08-25T09:25:04;9.57;;;6.20;;
3034;SDS011;1527;48.836;9.172;2022-08-25T09:27:39;7.13;;;6.43;;
3034;SDS011;1527;48.836;9.172;2022-08-25T09:30:15;7.40;;;6.80;;
3034;SDS011;1527;48.836;9.172;2022-08-25T09:32:51;8.60;;;6.17;;
3034;SDS011;1527;48.836;9.172;2022-08-25T09:35:33;8.73;;;6.43;;
3034;SDS011;1527;48.836;9.172;2022-08-25T09:38:08;8.43;;;5.87;;
3034;SDS011;1527;48.836;9.172;2022-08-25T09:40:40;6.57;;;5.97;;
3034;SDS011;1527;48.836;9.172;2022-08-25T09:43:17;8.93;;;5.57;;
3034;SDS011;1527;48.836;9.172;2022-08-25T09:45:54;7.00;;;6.03;;
3034;SDS011;1527;48.836;9.172;2022-08-25T09:48:30;6.80;;;6.20;;
3034;SDS011;1527;48.836;9.172;2022-08-25T09:51:11;6.00;;;5.50;;
3034;SDS011;1527;48.836;9.172;2022-08-25T09:53:49;6.47;;;5.87;;
3034;SDS011;1527;48.836;9.172;2022-08-25T09:56:22;6.30;;;5.73;;
3034;SDS011;1527;48.836;9.172;2022-08-25T09:58:55;7.03;;;5.30;;
3034;SDS011;1527;48.836;9.172;2022-08-25T10:02:02;8.67;;;5.53;;
3034;SDS011;1527;48.836;9.172;2022-08-25T10:04:34;6.40;;;5.77;;
3034;SDS011;1527;48.836;9.172;2022-08-25T10:07:19;6.67;;;6.07;;
3034;SDS011;1527;48.836;9.172;2022-08-25T10:09:53;6.03;;;5.53;;
3034;SDS011;1527;48.836;9.172;2022-08-25T10:12:28;6.00;;;5.50;;
3034;SDS011;1527;48.836;9.172;2022-08-25T10:15:14;6.90;;;6.30;;
3034;SDS011;1527;48.836;9.172;2022-08-25T10:18:00;6.83;;;5.87;;
3034;SDS011;1527;48.836;9.172;2022-08-25T10:20:59;6.43;;;5.83;;
3034;SDS011;1527;48.836;9.172;2022-08-25T10:23:39;5.97;;;5.47;;
3034;SDS011;1527;48.836;9.172;2022-08-25T10:26:20;6.13;;;5.40;;
3034;SDS011;1527;48.836;9.172;2022-08-25T10:29:04;6.07;;;5.40;;
3034;SDS011;1527;48.836;9.172;2022-08-25T10:31:50;6.00;;;5.50;;
3034;SDS011;1527;48.836;9.172;2022-08-25T10:34:27;6.57;;;5.97;;
3034;SDS011;1527;48.836;9.172;2022-08-25T10:37:21;6.03;;;5.30;;
3034;SDS011;1527;48.836;9.172;2022-08-25T10:40:05;6.40;;;5.80;;
3034;SDS011;1527;48.836;9.172;2022-08-25T10:42:46;6.93;;;6.33;;
3034;SDS011;1527;48.836;9.172;2022-08-25T10:45:28;6.80;;;6.20;;
3034;SDS011;1527;48.836;9.172;2022-08-25T10:51:28;8.30;;;6.60;;
3034;SDS011;1527;48.836;9.172;2022-08-25T10:57:13;7.13;;;6.10;;
3034;SDS011;1527;48.836;9.172;2022-08-25T11:02:53;6.60;;;6.00;;
3034;SDS011;1527;48.836;9.172;2022-08-25T11:05:53;8.60;;;6.30;;
3034;SDS011;1527;48.836;9.172;2022-08-25T11:08:30;6.40;;;5.87;;
3034;SDS011;1527;48.836;9.172;2022-08-25T11:11:06;7.00;;;6.30;;
3034;SDS011;1527;48.836;9.172;2022-08-25T11:13:43;6.30;;;5.70;;
3034;SDS011;1527;48.836;9.172;2022-08-25T11:16:20;7.40;;;6.10;;
3034;SDS011;1527;48.836;9.172;2022-08-25T11:19:04;6.80;;;6.20;;
3034;SDS011;1527;48.836;9.172;2022-08-25T11:21:47;5.97;;;5.37;;
3034;SDS011;1527;48.836;9.172;2022-08-25T11:24:26;7.40;;;6.70;;
3034;SDS011;1527;48.836;9.172;2022-08-25T11:27:09;5.73;;;5.20;;
3034;SDS011;1527;48.836;9.172;2022-08-25T11:29:53;6.03;;;5.50;;
3034;SDS011;1527;48.836;9.172;2022-08-25T11:32:27;6.67;;;6.07;;
3034;SDS011;1527;48.836;9.172;2022-08-25T11:35:03;6.47;;;5.87;;
3034;SDS011;1527;48.836;9.172;2022-08-25T11:37:41;6.50;;;5.90;;
3034;SDS011;1527;48.836;9.172;2022-08-25T11:40:40;9.23;;;5.70;;
3034;SDS011;1527;48.836;9.172;2022-08-25T11:43:24;6.07;;;5.57;;
3034;SDS011;1527;48.836;9.172;2022-08-25T11:46:17;6.13;;;5.20;;
3034;SDS011;1527;48.836;9.172;2022-08-25T11:49:02;7.00;;;5.80;;
3034;SDS011;1527;48.836;9.172;2022-08-25T11:51:52;6.77;;;6.17;;
3034;SDS011;1527;48.836;9.172;2022-08-25T11:54:33;5.67;;;5.17;;
3034;SDS011;1527;48.836;9.172;2022-08-25T11:57:08;5.60;;;5.10;;
3034;SDS011;1527;48.836;9.172;2022-08-25T12:00:06;4.97;;;4.57;;
3034;SDS011;1527;48.836;9.172;2022-08-25T12:02:42;5.40;;;4.87;;
3034;SDS011;1527;48.836;9.172;2022-08-25T12:11:43;5.27;;;4.77;;
3034;SDS011;1527;48.836;9.172;2022-08-25T12:14:40;4.77;;;4.37;;
3034;SDS011;1527;48.836;9.172;2022-08-25T12:17:21;5.23;;;4.93;;
3034;SDS011;1527;48.836;9.172;2022-08-25T12:19:58;5.57;;;5.07;;
3034;SDS011;1527;48.836;9.172;2022-08-25T12:22:39;6.70;;;5.10;;
3034;SDS011;1527;48.836;9.172;2022-08-25T12:28:25;4.80;;;4.40;;
3034;SDS011;1527;48.836;9.172;2022-08-25T12:31:06;5.47;;;5.00;;
3034;SDS011;1527;48.836;9.172;2022-08-25T12:33:51;5.30;;;4.47;;
3034;SDS011;1527;48.836;9.172;2022-08-25T12:36:48;6.30;;;4.70;;
3034;SDS011;1527;48.836;9.172;2022-08-25T12:39:28;6.83;;;4.80;;
3034;SDS011;1527;48.836;9.172;2022-08-25T12:42:02;5.87;;;4.80;;
3034;SDS011;1527;48.836;9.172;2022-08-25T12:44:37;6.23;;;5.63;;
3034;SDS011;1527;48.836;9.172;2022-08-25T12:47:24;5.50;;;4.80;;
3034;SDS011;1527;48.836;9.172;2022-08-25T12:52:57;5.37;;;4.10;;
3034;SDS011;1527;48.836;9.172;2022-08-25T12:55:37;5.40;;;4.90;;
3034;SDS011;1527;48.836;9.172;2022-08-25T12:58:12;5.10;;;4.70;;
3034;SDS011;1527;48.836;9.172;2022-08-25T13:00:56;8.73;;;4.30;;
3034;SDS011;1527;48.836;9.172;2022-08-25T13:07:18;4.93;;;4.53;;
3034;SDS011;1527;48.836;9.172;2022-08-25T13:10:28;4.27;;;3.87;;
3034;SDS011;1527;48.836;9.172;2022-08-25T13:13:11;4.93;;;4.53;;
3034;SDS011;1527;48.836;9.172;2022-08-25T13:15:57;4.90;;;4.50;;
3034;SDS011;1527;48.836;9.172;2022-08-25T13:18:31;4.87;;;4.43;;
3034;SDS011;1527;48.836;9.172;2022-08-25T13:21:03;4.70;;;4.30;;
3034;SDS011;1527;48.836;9.172;2022-08-25T13:23:44;6.70;;;4.70;;
3034;SDS011;1527;48.836;9.172;2022-08-25T13:26:22;4.63;;;4.23;;
3034;SDS011;1527;48.836;9.172;2022-08-25T13:28:55;4.13;;;3.83;;
3034;SDS011;1527;48.836;9.172;2022-08-25T13:31:28;4.40;;;4.10;;
3034;SDS011;1527;48.836;9.172;2022-08-25T13:33:58;4.50;;;4.10;;
3034;SDS011;1527;48.836;9.172;2022-08-25T13:36:33;5.47;;;4.00;;
3034;SDS011;1527;48.836;9.172;2022-08-25T13:39:28;4.50;;;4.13;;
3034;SDS011;1527;48.836;9.172;2022-08-25T13:42:22;6.50;;;3.73;;
3034;SDS011;1527;48.836;9.172;2022-08-25T13:44:55;4.50;;;4.20;;
3034;SDS011;1527;48.836;9.172;2022-08-25T13:47:31;4.73;;;4.37;;
3034;SDS011;1527;48.836;9.172;2022-08-25T13:50:20;4.60;;;4.20;;
3034;SDS011;1527;48.836;9.172;2022-08-25T13:53:01;4.47;;;4.07;;
3034;SDS011;1527;48.836;9.172;2022-08-25T13:55:38;4.43;;;4.13;;
3034;SDS011;1527;48.836;9.172;2022-08-25T13:58:22;5.50;;;5.00;;
3034;SDS011;1527;48.836;9.172;2022-08-25T14:01:12;4.53;;;3.60;;
3034;SDS011;1527;48.836;9.172;2022-08-25T14:04:25;4.47;;;4.13;;
3034;SDS011;1527;48.836;9.172;2022-08-25T14:07:06;5.00;;;4.50;;
3034;SDS011;1527;48.836;9.172;2022-08-25T14:10:01;4.20;;;3.90;;
3034;SDS011;1527;48.836;9.172;2022-08-25T14:12:36;4.90;;;4.50;;
3034;SDS011;1527;48.836;9.172;2022-08-25T14:15:25;3.90;;;3.57;;
3034;SDS011;1527;48.836;9.172;2022-08-25T14:18:00;4.60;;;4.20;;
3034;SDS011;1527;48.836;9.172;2022-08-25T14:20:34;4.53;;;3.67;;
3034;SDS011;1527;48.836;9.172;2022-08-25T14:23:08;4.43;;;4.13;;
3034;SDS011;1527;48.836;9.172;2022-08-25T14:25:45;4.27;;;3.97;;
3034;SDS011;1527;48.836;9.172;2022-08-25T14:28:16;4.23;;;3.83;;
3034;SDS011;1527;48.836;9.172;2022-08-25T14:30:52;5.53;;;4.10;;
3034;SDS011;1527;48.836;9.172;2022-08-25T14:33:26;4.43;;;4.03;;
3034;SDS011;1527;48.836;9.172;2022-08-25T14:35:59;5.40;;;4.10;;
3034;SDS011;1527;48.836;9.172;2022-08-25T14:38:31;4.70;;;4.30;;
3034;SDS011;1527;48.836;9.172;2022-08-25T14:41:07;4.80;;;4.40;;
3034;SDS011;1527;48.836;9.172;2022-08-25T14:43:36;4.80;;;4.27;;
3034;SDS011;1527;48.836;9.172;2022-08-25T14:46:08;5.30;;;4.83;;
3034;SDS011;1527;48.836;9.172;2022-08-25T14:48:46;7.60;;;4.97;;
3034;SDS011;1527;48.836;9.172;2022-08-25T14:51:22;5.23;;;4.80;;
3034;SDS011;1527;48.836;9.172;2022-08-25T14:53:53;4.33;;;4.03;;
3034;SDS011;1527;48.836;9.172;2022-08-25T14:56:27;4.53;;;4.13;;
3034;SDS011;1527;48.836;9.172;2022-08-25T14:58:58;4.67;;;4.30;;
3034;SDS011;1527;48.836;9.172;2022-08-25T15:01:28;3.90;;;3.60;;
3034;SDS011;1527;48.836;9.172;2022-08-25T15:04:00;4.37;;;4.07;;
3034;SDS011;1527;48.836;9.172;2022-08-25T15:06:34;5.43;;;4.00;;
3034;SDS011;1527;48.836;9.172;2022-08-25T15:09:04;4.87;;;4.40;;
3034;SDS011;1527;48.836;9.172;2022-08-25T15:11:38;4.57;;;4.20;;
3034;SDS011;1527;48.836;9.172;2022-08-25T15:14:12;4.03;;;3.73;;
3034;SDS011;1527;48.836;9.172;2022-08-25T15:16:45;4.00;;;3.70;;
3034;SDS011;1527;48.836;9.172;2022-08-25T15:19:18;4.63;;;4.00;;
3034;SDS011;1527;48.836;9.172;2022-08-25T15:21:51;5.97;;;5.07;;
3034;SDS011;1527;48.836;9.172;2022-08-25T15:24:24;5.70;;;5.20;;
3034;SDS011;1527;48.836;9.172;2022-08-25T15:26:54;5.07;;;4.60;;
3034;SDS011;1527;48.836;9.172;2022-08-25T15:29:26;4.47;;;4.17;;
3034;SDS011;1527;48.836;9.172;2022-08-25T15:31:59;6.23;;;4.27;;
3034;SDS011;1527;48.836;9.172;2022-08-25T15:34:31;4.57;;;4.23;;
3034;SDS011;1527;48.836;9.172;2022-08-25T15:37:04;4.93;;;4.53;;
3034;SDS011;1527;48.836;9.172;2022-08-25T15:39:36;4.30;;;3.90;;
3034;SDS011;1527;48.836;9.172;2022-08-25T15:42:07;4.40;;;4.00;;
3034;SDS011;1527;48.836;9.172;2022-08-25T15:44:38;4.70;;;4.30;;
3034;SDS011;1527;48.836;9.172;2022-08-25T15:47:21;4.57;;;4.17;;
3034;SDS011;1527;48.836;9.172;2022-08-25T15:49:51;4.23;;;3.90;;
3034;SDS011;1527;48.836;9.172;2022-08-25T15:52:33;4.37;;;3.97;;
3034;SDS011;1527;48.836;9.172;2022-08-25T15:55:14;4.13;;;3.30;;
3034;SDS011;1527;48.836;9.172;2022-08-25T15:57:46;4.30;;;4.00;;
3034;SDS011;1527;48.836;9.172;2022-08-25T16:00:16;4.90;;;4.30;;
3034;SDS011;1527;48.836;9.172;2022-08-25T16:02:49;4.20;;;3.90;;
3034;SDS011;1527;48.836;9.172;2022-08-25T16:05:18;5.90;;;4.03;;
3034;SDS011;1527;48.836;9.172;2022-08-25T16:07:52;5.07;;;4.37;;
3034;SDS011;1527;48.836;9.172;2022-08-25T16:10:21;4.13;;;3.80;;
3034;SDS011;1527;48.836;9.172;2022-08-25T16:12:51;4.53;;;3.93;;
3034;SDS011;1527;48.836;9.172;2022-08-25T16:15:20;4.63;;;4.23;;
3034;SDS011;1527;48.836;9.172;2022-08-25T16:17:56;6.00;;;3.70;;
3034;SDS011;1527;48.836;9.172;2022-08-25T16:20:27;5.10;;;4.60;;
3034;SDS011;1527;48.836;9.172;2022-08-25T16:22:59;4.17;;;3.87;;
3034;SDS011;1527;48.836;9.172;2022-08-25T16:25:30;3.90;;;3.60;;
3034;SDS011;1527;48.836;9.172;2022-08-25T16:28:02;4.50;;;4.10;;
3034;SDS011;1527;48.836;9.172;2022-08-25T16:30:33;5.30;;;3.63;;
3034;SDS011;1527;48.836;9.172;2022-08-25T16:33:04;4.00;;;3.70;;